createdAt,value
2018-08-09T00:00:48.580Z,992.9
2018-08-09T00:01:49.967Z,992.9
2018-08-09T00:02:51.356Z,992.9
2018-08-09T00:03:52.731Z,992.9
2018-08-09T00:04:54.139Z,992.9
2018-08-09T00:05:55.495Z,992.9
2018-08-09T00:06:56.890Z,992.9
2018-08-09T00:07:58.284Z,992.9
2018-08-09T00:08:59.692Z,993.0
2018-08-09T00:10:01.067Z,992.9
2018-08-09T00:11:02.440Z,993.0
2018-08-09T00:12:03.849Z,992.9
2018-08-09T00:13:05.222Z,992.9
2018-08-09T00:14:06.621Z,992.9
2018-08-09T00:15:08.009Z,992.9
2018-08-09T00:16:09.415Z,992.9
2018-08-09T00:17:10.797Z,992.8
2018-08-09T00:18:12.194Z,992.8
2018-08-09T00:19:13.571Z,992.8
2018-08-09T00:20:14.975Z,992.8
2018-08-09T00:21:16.355Z,992.8
2018-08-09T00:22:17.763Z,992.8
2018-08-09T00:23:19.140Z,992.8
2018-08-09T00:24:20.540Z,992.8
2018-08-09T00:25:21.940Z,992.9
2018-08-09T00:26:23.341Z,992.9
2018-08-09T00:27:24.719Z,992.9
2018-08-09T00:28:26.119Z,992.8
2018-08-09T00:29:27.515Z,992.9
2018-08-09T00:30:28.897Z,992.9
2018-08-09T00:31:30.810Z,992.9
2018-08-09T00:32:32.195Z,992.9
2018-08-09T00:33:33.587Z,992.9
2018-08-09T00:34:34.989Z,992.9
2018-08-09T00:35:36.384Z,992.9
2018-08-09T00:36:37.755Z,992.9
2018-08-09T00:37:39.135Z,992.8
2018-08-09T00:38:40.525Z,992.8
2018-08-09T00:39:41.925Z,992.8
2018-08-09T00:40:43.317Z,992.8
2018-08-09T00:41:44.700Z,992.8
2018-08-09T00:42:46.074Z,992.8
2018-08-09T00:43:47.476Z,992.8
2018-08-09T00:44:48.858Z,992.8
2018-08-09T00:45:50.274Z,992.8
2018-08-09T00:46:51.682Z,992.8
2018-08-09T00:47:53.088Z,992.8
2018-08-09T00:48:54.492Z,992.7
2018-08-09T00:49:55.878Z,992.7
2018-08-09T00:50:57.266Z,992.6
2018-08-09T00:51:58.664Z,992.7
2018-08-09T00:53:00.047Z,992.6
2018-08-09T00:54:01.425Z,992.6
2018-08-09T00:55:02.815Z,992.6
2018-08-09T00:56:04.214Z,992.7
2018-08-09T00:57:05.610Z,992.6
2018-08-09T00:58:06.989Z,992.6
2018-08-09T00:59:08.381Z,992.6
2018-08-09T01:00:09.783Z,992.6
2018-08-09T01:01:11.161Z,992.6
2018-08-09T01:02:12.548Z,992.6
2018-08-09T01:03:13.959Z,992.6
2018-08-09T01:04:15.351Z,992.6
2018-08-09T01:05:16.726Z,992.6
2018-08-09T01:06:18.112Z,992.6
2018-08-09T01:07:19.521Z,992.5
2018-08-09T01:08:20.896Z,992.5
2018-08-09T01:09:22.289Z,992.5
2018-08-09T01:10:23.689Z,992.5
2018-08-09T01:11:25.090Z,992.5
2018-08-09T01:12:26.482Z,992.4
2018-08-09T01:13:27.889Z,992.4
2018-08-09T01:14:29.268Z,992.4
2018-08-09T01:15:30.654Z,992.4
2018-08-09T01:16:32.036Z,992.4
2018-08-09T01:17:33.420Z,992.4
2018-08-09T01:18:35.418Z,992.4
2018-08-09T01:19:37.738Z,992.4
2018-08-09T01:20:39.780Z,992.4
2018-08-09T01:21:41.154Z,992.4
2018-08-09T01:22:42.549Z,992.4
2018-08-09T01:23:43.945Z,992.4
2018-08-09T01:24:45.344Z,992.4
2018-08-09T01:25:46.747Z,992.3
2018-08-09T01:26:48.127Z,992.4
2018-08-09T01:27:49.543Z,992.4
2018-08-09T01:28:50.945Z,992.4
2018-08-09T01:29:52.328Z,992.4
2018-08-09T01:30:53.721Z,992.4
2018-08-09T01:31:55.132Z,992.4
2018-08-09T01:32:56.623Z,992.4
2018-08-09T01:33:57.918Z,992.4
2018-08-09T01:34:59.302Z,992.4
2018-08-09T01:36:00.696Z,992.4
2018-08-09T01:37:02.091Z,992.4
2018-08-09T01:38:03.535Z,992.4
2018-08-09T01:39:04.945Z,992.4
2018-08-09T01:40:06.338Z,992.4
2018-08-09T01:41:07.730Z,992.4
2018-08-09T01:42:09.115Z,992.4
2018-08-09T01:43:10.525Z,992.3
2018-08-09T01:44:13.753Z,992.3
2018-08-09T01:45:15.134Z,992.3
2018-08-09T01:46:16.527Z,992.3
2018-08-09T01:47:17.978Z,992.3
2018-08-09T01:48:19.363Z,992.3
2018-08-09T01:49:20.740Z,992.3
2018-08-09T01:50:22.132Z,992.3
2018-08-09T01:51:23.535Z,992.3
2018-08-09T01:52:24.914Z,992.3
2018-08-09T01:53:26.320Z,992.3
2018-08-09T01:54:27.719Z,992.3
2018-08-09T01:55:29.098Z,992.3
2018-08-09T01:56:30.471Z,992.3
2018-08-09T01:57:31.851Z,992.3
2018-08-09T01:58:33.224Z,992.3
2018-08-09T01:59:34.620Z,992.3
2018-08-09T02:00:36.020Z,992.3
2018-08-09T02:01:37.401Z,992.3
2018-08-09T02:02:38.874Z,992.3
2018-08-09T02:03:40.256Z,992.3
2018-08-09T02:04:41.695Z,992.3
2018-08-09T02:05:43.734Z,992.3
2018-08-09T02:06:45.136Z,992.2
2018-08-09T02:07:46.533Z,992.3
2018-08-09T02:08:47.937Z,992.3
2018-08-09T02:09:49.324Z,992.3
2018-08-09T02:10:50.731Z,992.3
2018-08-09T02:11:52.103Z,992.3
2018-08-09T02:12:53.504Z,992.3
2018-08-09T02:13:54.915Z,992.3
2018-08-09T02:14:56.313Z,992.3
2018-08-09T02:15:57.707Z,992.2
2018-08-09T02:16:59.097Z,992.2
2018-08-09T02:18:00.479Z,992.2
2018-08-09T02:19:01.855Z,992.1
2018-08-09T02:20:03.236Z,992.1
2018-08-09T02:21:04.627Z,992.1
2018-08-09T02:22:06.022Z,992.1
2018-08-09T02:23:07.435Z,992.1
2018-08-09T02:24:08.831Z,992.1
2018-08-09T02:25:11.081Z,992.1
2018-08-09T02:26:12.480Z,992.1
2018-08-09T02:27:13.863Z,992.1
2018-08-09T02:28:15.270Z,992.1
2018-08-09T02:29:16.692Z,992.1
2018-08-09T02:30:18.100Z,992.1
2018-08-09T02:31:19.480Z,992.1
2018-08-09T02:32:20.871Z,992.1
2018-08-09T02:33:22.873Z,992.0
2018-08-09T02:34:24.249Z,992.0
2018-08-09T02:35:25.643Z,992.0
2018-08-09T02:36:27.030Z,992.0
2018-08-09T02:37:28.427Z,992.0
2018-08-09T02:38:29.810Z,992.0
2018-08-09T02:39:31.200Z,992.0
2018-08-09T02:40:32.591Z,992.0
2018-08-09T02:41:33.962Z,991.9
2018-08-09T02:42:35.381Z,991.9
2018-08-09T02:43:36.760Z,991.9
2018-08-09T02:44:38.175Z,991.9
2018-08-09T02:45:39.573Z,991.9
2018-08-09T02:46:41.065Z,991.9
2018-08-09T02:47:42.369Z,991.8
2018-08-09T02:48:43.757Z,991.9
2018-08-09T02:49:45.164Z,991.8
2018-08-09T02:50:46.553Z,991.9
2018-08-09T02:51:47.957Z,991.8
2018-08-09T02:52:49.331Z,991.9
2018-08-09T02:53:50.718Z,991.8
2018-08-09T02:54:52.107Z,991.8
2018-08-09T02:55:53.530Z,991.8
2018-08-09T02:56:55.575Z,991.8
2018-08-09T02:57:56.975Z,991.8
2018-08-09T02:58:58.370Z,991.9
2018-08-09T02:59:59.767Z,991.8
2018-08-09T03:01:01.173Z,991.8
2018-08-09T03:02:02.572Z,991.8
2018-08-09T03:03:03.959Z,991.9
2018-08-09T03:04:05.351Z,991.8
2018-08-09T03:05:06.789Z,991.8
2018-08-09T03:06:08.209Z,991.7
2018-08-09T03:07:09.587Z,991.7
2018-08-09T03:08:10.976Z,991.7
2018-08-09T03:09:12.359Z,991.7
2018-08-09T03:10:13.742Z,991.6
2018-08-09T03:11:15.122Z,991.6
2018-08-09T03:12:16.513Z,991.6
2018-08-09T03:13:17.917Z,991.6
2018-08-09T03:14:19.319Z,991.6
2018-08-09T03:15:20.713Z,991.6
2018-08-09T03:16:22.096Z,991.6
2018-08-09T03:17:23.563Z,991.6
2018-08-09T03:18:24.882Z,991.6
2018-08-09T03:19:26.271Z,991.6
2018-08-09T03:20:27.672Z,991.6
2018-08-09T03:21:29.064Z,991.6
2018-08-09T03:22:30.444Z,991.6
2018-08-09T03:23:31.826Z,991.7
2018-08-09T03:24:33.215Z,991.7
2018-08-09T03:25:34.594Z,991.6
2018-08-09T03:26:35.989Z,991.7
2018-08-09T03:27:37.383Z,991.7
2018-08-09T03:28:38.774Z,991.7
2018-08-09T03:29:40.169Z,991.7
2018-08-09T03:30:41.588Z,991.8
2018-08-09T03:31:42.959Z,991.7
2018-08-09T03:32:44.353Z,991.7
2018-08-09T03:33:45.732Z,991.8
2018-08-09T03:34:47.134Z,991.7
2018-08-09T03:35:48.505Z,991.8
2018-08-09T03:36:49.899Z,991.8
2018-08-09T03:37:51.304Z,991.8
2018-08-09T03:38:52.695Z,991.8
2018-08-09T03:39:54.110Z,991.8
2018-08-09T03:40:55.501Z,991.8
2018-08-09T03:41:56.865Z,991.8
2018-08-09T03:42:58.260Z,991.8
2018-08-09T03:43:59.668Z,991.8
2018-08-09T03:45:01.067Z,991.8
2018-08-09T03:46:02.459Z,991.7
2018-08-09T03:47:03.867Z,991.7
2018-08-09T03:48:05.261Z,991.7
2018-08-09T03:49:06.648Z,991.7
2018-08-09T03:50:08.035Z,991.7
2018-08-09T03:51:09.412Z,991.7
2018-08-09T03:52:10.810Z,991.7
2018-08-09T03:53:12.199Z,991.7
2018-08-09T03:54:13.616Z,991.7
2018-08-09T03:55:15.015Z,991.7
2018-08-09T03:56:16.401Z,991.7
2018-08-09T03:57:17.871Z,991.7
2018-08-09T03:58:19.226Z,991.7
2018-08-09T03:59:20.555Z,991.7
2018-08-09T04:00:21.952Z,991.7
2018-08-09T04:01:23.337Z,991.7
2018-08-09T04:02:24.714Z,991.8
2018-08-09T04:03:26.095Z,991.7
2018-08-09T04:04:27.455Z,991.7
2018-08-09T04:05:28.835Z,991.7
2018-08-09T04:06:30.220Z,991.7
2018-08-09T04:07:31.598Z,991.7
2018-08-09T04:08:32.968Z,991.7
2018-08-09T04:09:34.347Z,991.7
2018-08-09T04:10:35.740Z,991.7
2018-08-09T04:11:37.126Z,991.7
2018-08-09T04:12:38.495Z,991.7
2018-08-09T04:13:39.877Z,991.7
2018-08-09T04:14:41.277Z,991.7
2018-08-09T04:15:42.655Z,991.7
2018-08-09T04:16:44.107Z,991.7
2018-08-09T04:17:45.491Z,991.7
2018-08-09T04:18:46.877Z,991.8
2018-08-09T04:19:48.253Z,991.7
2018-08-09T04:20:49.650Z,991.7
2018-08-09T04:21:51.031Z,991.7
2018-08-09T04:22:52.423Z,991.7
2018-08-09T04:23:53.822Z,991.7
2018-08-09T04:24:55.224Z,991.7
2018-08-09T04:25:56.613Z,991.8
2018-08-09T04:26:58.050Z,991.8
2018-08-09T04:27:59.433Z,991.8
2018-08-09T04:29:00.830Z,991.8
2018-08-09T04:30:02.239Z,991.8
2018-08-09T04:31:03.673Z,991.8
2018-08-09T04:32:05.106Z,991.8
2018-08-09T04:33:06.524Z,991.8
2018-08-09T04:34:07.930Z,991.8
2018-08-09T04:35:09.303Z,991.8
2018-08-09T04:36:10.679Z,991.8
2018-08-09T04:37:12.051Z,991.8
2018-08-09T04:38:13.479Z,991.8
2018-08-09T04:39:14.891Z,991.7
2018-08-09T04:40:16.292Z,991.8
2018-08-09T04:41:17.697Z,991.7
2018-08-09T04:42:19.095Z,991.7
2018-08-09T04:43:20.474Z,991.7
2018-08-09T04:44:21.851Z,991.7
2018-08-09T04:45:23.232Z,991.7
2018-08-09T04:46:24.632Z,991.7
2018-08-09T04:47:26.032Z,991.6
2018-08-09T04:48:27.439Z,991.7
2018-08-09T04:49:28.830Z,991.7
2018-08-09T04:50:30.203Z,991.7
2018-08-09T04:51:31.584Z,991.7
2018-08-09T04:52:32.979Z,991.7
2018-08-09T04:53:34.372Z,991.7
2018-08-09T04:54:35.765Z,991.7
2018-08-09T04:55:37.158Z,991.7
2018-08-09T04:56:38.577Z,991.8
2018-08-09T04:57:39.968Z,991.7
2018-08-09T04:58:41.366Z,991.8
2018-08-09T04:59:42.762Z,991.8
2018-08-09T05:00:44.164Z,991.8
2018-08-09T05:01:45.562Z,991.8
2018-08-09T05:02:46.953Z,991.8
2018-08-09T05:03:48.359Z,991.8
2018-08-09T05:04:49.746Z,991.8
2018-08-09T05:05:51.142Z,991.8
2018-08-09T05:06:52.531Z,991.8
2018-08-09T05:07:53.938Z,991.9
2018-08-09T05:08:55.361Z,991.8
2018-08-09T05:09:56.765Z,991.8
2018-08-09T05:10:58.146Z,991.9
2018-08-09T05:11:59.541Z,991.9
2018-08-09T05:13:00.947Z,991.9
2018-08-09T05:14:02.341Z,992.0
2018-08-09T05:15:03.734Z,992.0
2018-08-09T05:16:05.138Z,992.0
2018-08-09T05:17:06.530Z,992.0
2018-08-09T05:18:07.925Z,992.0
2018-08-09T05:19:09.343Z,992.1
2018-08-09T05:20:10.730Z,992.1
2018-08-09T05:21:12.124Z,992.1
2018-08-09T05:22:13.530Z,992.1
2018-08-09T05:23:14.989Z,992.1
2018-08-09T05:24:16.335Z,992.1
2018-08-09T05:25:17.729Z,992.1
2018-08-09T05:26:19.138Z,992.1
2018-08-09T05:27:20.518Z,992.1
2018-08-09T05:28:21.961Z,992.1
2018-08-09T05:29:23.342Z,992.2
2018-08-09T05:30:24.729Z,992.1
2018-08-09T05:31:26.119Z,992.1
2018-08-09T05:32:27.508Z,992.1
2018-08-09T05:33:28.905Z,992.2
2018-08-09T05:34:30.300Z,992.2
2018-08-09T05:35:31.713Z,992.2
2018-08-09T05:36:33.097Z,992.2
2018-08-09T05:37:34.516Z,992.2
2018-08-09T05:38:35.905Z,992.2
2018-08-09T05:39:37.317Z,992.2
2018-08-09T05:40:38.698Z,992.3
2018-08-09T05:41:40.133Z,992.3
2018-08-09T05:42:41.512Z,992.3
2018-08-09T05:43:42.909Z,992.3
2018-08-09T05:44:44.303Z,992.3
2018-08-09T05:45:45.734Z,992.3
2018-08-09T05:46:47.135Z,992.3
2018-08-09T05:47:48.541Z,992.3
2018-08-09T05:48:49.984Z,992.3
2018-08-09T05:49:51.378Z,992.3
2018-08-09T05:50:52.816Z,992.3
2018-08-09T05:51:54.209Z,992.3
2018-08-09T05:52:55.701Z,992.3
2018-08-09T05:53:56.988Z,992.3
2018-08-09T05:54:58.393Z,992.3
2018-08-09T05:55:59.789Z,992.3
2018-08-09T05:57:01.220Z,992.2
2018-08-09T05:58:02.619Z,992.2
2018-08-09T05:59:04.028Z,992.2
2018-08-09T06:00:05.471Z,992.2
2018-08-09T06:01:06.856Z,992.2
2018-08-09T06:02:08.257Z,992.2
2018-08-09T06:03:09.645Z,992.2
2018-08-09T06:04:11.053Z,992.2
2018-08-09T06:05:12.436Z,992.1
2018-08-09T06:06:13.826Z,992.1
2018-08-09T06:07:15.201Z,992.1
2018-08-09T06:08:16.592Z,992.1
2018-08-09T06:09:18.010Z,992.1
2018-08-09T06:10:19.408Z,992.1
2018-08-09T06:11:20.799Z,992.2
2018-08-09T06:12:22.183Z,992.1
2018-08-09T06:13:23.589Z,992.1
2018-08-09T06:14:24.967Z,992.2
2018-08-09T06:15:26.363Z,992.2
2018-08-09T06:16:27.767Z,992.2
2018-08-09T06:17:29.162Z,992.2
2018-08-09T06:18:30.574Z,992.2
2018-08-09T06:19:31.974Z,992.2
2018-08-09T06:20:33.396Z,992.2
2018-08-09T06:21:34.772Z,992.2
2018-08-09T06:22:36.227Z,992.2
2018-08-09T06:23:37.641Z,992.2
2018-08-09T06:24:39.045Z,992.2
2018-08-09T06:25:40.443Z,992.2
2018-08-09T06:26:41.865Z,992.1
2018-08-09T06:27:43.261Z,992.1
2018-08-09T06:28:44.678Z,992.1
2018-08-09T06:29:46.029Z,992.2
2018-08-09T06:30:47.425Z,992.1
2018-08-09T06:31:48.816Z,992.1
2018-08-09T06:32:50.209Z,992.1
2018-08-09T06:33:51.648Z,992.1
2018-08-09T06:34:53.036Z,992.0
2018-08-09T06:35:54.425Z,992.0
2018-08-09T06:36:55.813Z,992.0
2018-08-09T06:37:57.214Z,992.0
2018-08-09T06:38:58.597Z,991.9
2018-08-09T06:39:59.975Z,991.9
2018-08-09T06:41:01.365Z,991.9
2018-08-09T06:42:02.757Z,991.9
2018-08-09T06:43:04.152Z,991.9
2018-08-09T06:44:05.590Z,991.9
2018-08-09T06:45:06.972Z,991.8
2018-08-09T06:46:08.356Z,991.9
2018-08-09T06:47:09.742Z,991.9
2018-08-09T06:48:11.139Z,991.9
2018-08-09T06:49:12.550Z,991.9
2018-08-09T06:50:13.981Z,991.9
2018-08-09T06:51:15.373Z,991.9
2018-08-09T06:52:16.772Z,992.0
2018-08-09T06:53:18.130Z,992.0
2018-08-09T06:54:19.519Z,992.0
2018-08-09T06:55:20.913Z,992.1
2018-08-09T06:56:22.370Z,992.1
2018-08-09T06:57:23.704Z,992.1
2018-08-09T06:58:25.090Z,992.1
2018-08-09T06:59:26.468Z,992.0
2018-08-09T07:00:28.509Z,992.0
2018-08-09T07:01:29.903Z,992.0
2018-08-09T07:02:31.289Z,991.9
2018-08-09T07:03:32.668Z,991.9
2018-08-09T07:04:34.043Z,991.9
2018-08-09T07:05:35.465Z,991.9
2018-08-09T07:06:36.880Z,991.8
2018-08-09T07:07:38.275Z,991.8
2018-08-09T07:08:39.672Z,991.8
2018-08-09T07:09:41.057Z,991.8
2018-08-09T07:10:42.456Z,991.8
2018-08-09T07:11:43.838Z,991.8
2018-08-09T07:12:45.253Z,991.8
2018-08-09T07:13:46.623Z,991.8
2018-08-09T07:14:48.042Z,991.8
2018-08-09T07:15:49.494Z,991.8
2018-08-09T07:16:50.883Z,991.8
2018-08-09T07:17:52.287Z,991.7
2018-08-09T07:18:53.684Z,991.6
2018-08-09T07:19:55.078Z,991.6
2018-08-09T07:20:56.496Z,991.6
2018-08-09T07:21:58.528Z,991.6
2018-08-09T07:22:59.919Z,991.5
2018-08-09T07:24:01.557Z,991.5
2018-08-09T07:25:03.426Z,991.5
2018-08-09T07:26:04.808Z,991.5
2018-08-09T07:27:06.199Z,991.5
2018-08-09T07:28:07.573Z,991.4
2018-08-09T07:29:08.987Z,991.4
2018-08-09T07:30:10.384Z,991.4
2018-08-09T07:31:11.802Z,991.4
2018-08-09T07:32:13.744Z,991.4
2018-08-09T07:33:15.116Z,991.4
2018-08-09T07:34:16.531Z,991.4
2018-08-09T07:35:17.982Z,991.4
2018-08-09T07:36:19.383Z,991.4
2018-08-09T07:37:21.608Z,991.4
2018-08-09T07:38:23.025Z,991.3
2018-08-09T07:39:24.415Z,991.3
2018-08-09T07:40:25.776Z,991.3
2018-08-09T07:41:27.163Z,991.3
2018-08-09T07:42:28.578Z,991.3
2018-08-09T07:43:29.977Z,991.2
2018-08-09T07:44:31.401Z,991.2
2018-08-09T07:45:32.760Z,991.2
2018-08-09T07:46:34.154Z,991.2
2018-08-09T07:47:35.603Z,991.1
2018-08-09T07:48:37.122Z,991.2
2018-08-09T07:49:38.411Z,991.1
2018-08-09T07:50:39.784Z,991.2
2018-08-09T07:51:41.176Z,991.2
2018-08-09T07:52:42.587Z,991.2
2018-08-09T07:53:43.973Z,991.1
2018-08-09T07:54:45.491Z,991.0
2018-08-09T07:55:46.896Z,991.1
2018-08-09T07:56:48.254Z,991.0
2018-08-09T07:57:49.649Z,991.0
2018-08-09T07:58:51.043Z,991.0
2018-08-09T07:59:52.500Z,991.0
2018-08-09T08:00:53.957Z,991.0
2018-08-09T08:01:55.308Z,991.0
2018-08-09T08:02:56.671Z,991.0
2018-08-09T08:03:58.081Z,991.0
2018-08-09T08:04:59.488Z,991.0
2018-08-09T08:06:00.930Z,991.0
2018-08-09T08:07:02.252Z,991.0
2018-08-09T08:08:03.649Z,990.9
2018-08-09T08:09:05.032Z,990.8
2018-08-09T08:10:06.408Z,990.8
2018-08-09T08:11:07.807Z,990.8
2018-08-09T08:12:09.324Z,990.8
2018-08-09T08:13:10.764Z,990.8
2018-08-09T08:14:12.175Z,990.8
2018-08-09T08:15:13.581Z,990.9
2018-08-09T08:16:14.997Z,990.9
2018-08-09T08:17:16.432Z,990.9
2018-08-09T08:18:17.931Z,990.9
2018-08-09T08:19:19.378Z,990.9
2018-08-09T08:20:20.742Z,990.9
2018-08-09T08:21:22.173Z,990.9
2018-08-09T08:22:23.581Z,991.0
2018-08-09T08:23:25.021Z,991.0
2018-08-09T08:24:26.409Z,991.0
2018-08-09T08:25:27.791Z,991.0
2018-08-09T08:26:29.167Z,991.0
2018-08-09T08:27:30.601Z,991.0
2018-08-09T08:28:32.053Z,991.0
2018-08-09T08:29:33.607Z,991.0
2018-08-09T08:30:34.987Z,990.9
2018-08-09T08:31:36.425Z,990.9
2018-08-09T08:32:37.837Z,990.9
2018-08-09T08:33:39.259Z,990.9
2018-08-09T08:34:40.689Z,990.9
2018-08-09T08:35:42.221Z,990.9
2018-08-09T08:36:43.593Z,990.9
2018-08-09T08:37:45.012Z,990.9
2018-08-09T08:38:46.646Z,990.9
2018-08-09T08:39:48.027Z,990.9
2018-08-09T08:40:49.402Z,990.9
2018-08-09T08:41:52.400Z,990.9
2018-08-09T08:42:53.642Z,990.9
2018-08-09T08:43:55.036Z,990.9
2018-08-09T08:44:56.439Z,990.9
2018-08-09T08:45:57.827Z,990.8
2018-08-09T08:46:59.231Z,990.8
2018-08-09T08:48:00.626Z,990.8
2018-08-09T08:49:02.025Z,990.8
2018-08-09T08:50:03.501Z,990.7
2018-08-09T08:51:05.035Z,990.7
2018-08-09T08:52:06.432Z,990.7
2018-08-09T08:53:07.851Z,990.7
2018-08-09T08:54:09.204Z,990.7
2018-08-09T08:55:10.625Z,990.6
2018-08-09T08:56:12.290Z,990.6
2018-08-09T08:57:13.707Z,990.5
2018-08-09T08:58:15.190Z,990.5
2018-08-09T08:59:16.564Z,990.5
2018-08-09T09:00:17.997Z,990.5
2018-08-09T09:01:19.400Z,990.6
2018-08-09T09:02:20.777Z,990.5
2018-08-09T09:03:22.161Z,990.6
2018-08-09T09:04:23.573Z,990.6
2018-08-09T09:05:25.023Z,990.6
2018-08-09T09:06:27.327Z,990.6
2018-08-09T09:07:28.685Z,990.6
2018-08-09T09:08:30.068Z,990.6
2018-08-09T09:09:32.432Z,990.6
2018-08-09T09:10:33.847Z,990.7
2018-08-09T09:11:35.275Z,990.7
2018-08-09T09:12:36.702Z,990.5
2018-08-09T09:13:38.165Z,990.6
2018-08-09T09:14:39.535Z,990.6
2018-08-09T09:15:40.955Z,990.6
2018-08-09T09:16:42.411Z,990.5
2018-08-09T09:17:44.051Z,990.5
2018-08-09T09:18:45.564Z,990.6
2018-08-09T09:19:46.973Z,990.5
2018-08-09T09:20:48.331Z,990.5
2018-08-09T09:21:49.729Z,990.5
2018-08-09T09:22:51.633Z,990.6
2018-08-09T09:23:53.036Z,990.4
2018-08-09T09:24:54.416Z,990.4
2018-08-09T09:25:55.849Z,990.5
2018-08-09T09:26:57.315Z,990.3
2018-08-09T09:27:58.839Z,990.3
2018-08-09T09:29:00.242Z,990.4
2018-08-09T09:30:01.679Z,990.3
2018-08-09T09:31:03.077Z,990.4
2018-08-09T09:32:04.483Z,990.3
2018-08-09T09:33:05.867Z,990.4
2018-08-09T09:34:07.312Z,990.4
2018-08-09T09:35:08.836Z,990.4
2018-08-09T09:36:10.205Z,990.3
2018-08-09T09:37:11.600Z,990.3
2018-08-09T09:38:13.079Z,990.3
2018-08-09T09:39:14.531Z,990.3
2018-08-09T09:40:15.920Z,990.3
2018-08-09T09:41:17.325Z,990.4
2018-08-09T09:42:18.712Z,990.4
2018-08-09T09:43:20.134Z,990.4
2018-08-09T09:44:21.531Z,990.3
2018-08-09T09:45:22.930Z,990.4
2018-08-09T09:46:24.510Z,990.3
2018-08-09T09:47:25.925Z,990.2
2018-08-09T09:48:27.367Z,990.3
2018-08-09T09:49:28.769Z,990.2
2018-08-09T09:50:30.178Z,990.3
2018-08-09T09:51:31.569Z,990.2
2018-08-09T09:52:32.985Z,990.2
2018-08-09T09:53:34.414Z,990.2
2018-08-09T09:54:35.795Z,990.3
2018-08-09T09:55:37.201Z,990.2
2018-08-09T09:56:38.611Z,990.4
2018-08-09T09:57:40.023Z,990.3
2018-08-09T09:58:41.478Z,990.3
2018-08-09T09:59:43.384Z,990.2
2018-08-09T10:00:45.029Z,990.2
2018-08-09T10:01:46.708Z,990.3
2018-08-09T10:02:48.391Z,990.2
2018-08-09T10:03:49.725Z,990.2
2018-08-09T10:04:51.317Z,990.1
2018-08-09T10:05:53.154Z,990.1
2018-08-09T10:06:54.580Z,990.2
2018-08-09T10:07:56.209Z,990.2
2018-08-09T10:08:57.779Z,990.2
2018-08-09T10:09:59.359Z,990.1
2018-08-09T10:11:00.746Z,990.1
2018-08-09T10:12:02.113Z,990.2
2018-08-09T10:13:03.524Z,990.2
2018-08-09T10:14:04.935Z,990.1
2018-08-09T10:15:06.334Z,990.1
2018-08-09T10:16:07.734Z,990.1
2018-08-09T10:17:09.130Z,990.0
2018-08-09T10:18:10.618Z,990.1
2018-08-09T10:19:12.011Z,990.0
2018-08-09T10:20:13.602Z,990.1
2018-08-09T10:21:15.046Z,990.0
2018-08-09T10:22:16.453Z,990.0
2018-08-09T10:23:17.850Z,989.9
2018-08-09T10:24:19.323Z,990.0
2018-08-09T10:25:20.834Z,989.9
2018-08-09T10:26:22.262Z,989.9
2018-08-09T10:27:23.662Z,989.8
2018-08-09T10:28:25.088Z,989.8
2018-08-09T10:29:26.492Z,989.9
2018-08-09T10:30:27.926Z,989.8
2018-08-09T10:31:29.314Z,989.7
2018-08-09T10:32:30.699Z,989.7
2018-08-09T10:33:32.075Z,989.8
2018-08-09T10:34:33.471Z,989.8
2018-08-09T10:35:34.880Z,989.7
2018-08-09T10:36:36.217Z,989.7
2018-08-09T10:37:37.605Z,989.6
2018-08-09T10:38:39.033Z,989.7
2018-08-09T10:39:40.409Z,989.8
2018-08-09T10:40:42.495Z,989.7
2018-08-09T10:41:43.877Z,989.8
2018-08-09T10:42:45.327Z,989.6
2018-08-09T10:43:46.695Z,989.6
2018-08-09T10:44:48.083Z,989.6
2018-08-09T10:45:49.569Z,989.6
2018-08-09T10:46:50.953Z,989.7
2018-08-09T10:47:52.326Z,989.7
2018-08-09T10:48:53.761Z,989.6
2018-08-09T10:49:55.230Z,989.6
2018-08-09T10:50:56.629Z,989.6
2018-08-09T10:51:58.028Z,989.7
2018-08-09T10:52:59.392Z,989.5
2018-08-09T10:54:00.775Z,989.6
2018-08-09T10:55:02.156Z,989.7
2018-08-09T10:56:03.599Z,989.6
2018-08-09T10:57:04.981Z,989.6
2018-08-09T10:58:06.361Z,989.6
2018-08-09T10:59:07.934Z,989.5
2018-08-09T11:00:09.315Z,989.5
2018-08-09T11:01:10.702Z,989.5
2018-08-09T11:02:12.115Z,989.6
2018-08-09T11:03:13.520Z,989.4
2018-08-09T11:04:14.951Z,989.4
2018-08-09T11:05:16.381Z,989.3
2018-08-09T11:06:17.761Z,989.3
2018-08-09T11:07:19.153Z,989.3
2018-08-09T11:08:20.551Z,989.2
2018-08-09T11:09:22.049Z,989.2
2018-08-09T11:10:23.391Z,989.2
2018-08-09T11:11:25.175Z,989.2
2018-08-09T11:12:26.595Z,989.1
2018-08-09T11:13:28.139Z,989.0
2018-08-09T11:14:29.520Z,989.1
2018-08-09T11:15:31.583Z,989.1
2018-08-09T11:16:32.960Z,989.1
2018-08-09T11:17:34.366Z,989.0
2018-08-09T11:18:35.775Z,989.1
2018-08-09T11:19:37.195Z,989.0
2018-08-09T11:20:38.588Z,989.0
2018-08-09T11:21:40.086Z,989.0
2018-08-09T11:22:41.496Z,989.0
2018-08-09T11:23:42.918Z,989.0
2018-08-09T11:24:44.386Z,989.0
2018-08-09T11:25:45.770Z,989.1
2018-08-09T11:26:47.233Z,989.0
2018-08-09T11:27:48.639Z,989.0
2018-08-09T11:28:50.149Z,989.0
2018-08-09T11:29:52.110Z,989.1
2018-08-09T11:30:53.649Z,989.0
2018-08-09T11:31:55.048Z,989.0
2018-08-09T11:32:56.443Z,989.0
2018-08-09T11:33:57.870Z,989.0
2018-08-09T11:34:59.215Z,989.0
2018-08-09T11:36:00.582Z,989.0
2018-08-09T11:37:02.114Z,989.0
2018-08-09T11:38:03.867Z,989.0
2018-08-09T11:39:05.280Z,989.0
2018-08-09T11:40:06.787Z,989.0
2018-08-09T11:41:08.581Z,989.0
2018-08-09T11:42:10.329Z,988.9
2018-08-09T11:43:11.798Z,988.9
2018-08-09T11:44:13.259Z,988.8
2018-08-09T11:45:14.657Z,988.8
2018-08-09T11:46:16.049Z,988.8
2018-08-09T11:47:17.488Z,988.8
2018-08-09T11:48:18.898Z,988.9
2018-08-09T11:49:20.283Z,988.8
2018-08-09T11:50:22.581Z,988.8
2018-08-09T11:51:23.996Z,988.8
2018-08-09T11:52:25.418Z,988.7
2018-08-09T11:53:26.800Z,988.7
2018-08-09T11:54:28.188Z,988.7
2018-08-09T11:55:29.567Z,988.7
2018-08-09T11:56:30.992Z,988.7
2018-08-09T11:57:32.348Z,988.6
2018-08-09T11:58:34.408Z,988.6
2018-08-09T11:59:35.785Z,988.6
2018-08-09T12:00:37.225Z,988.6
2018-08-09T12:01:38.675Z,988.6
2018-08-09T12:02:40.009Z,988.6
2018-08-09T12:03:41.430Z,988.5
2018-08-09T12:04:43.475Z,988.6
2018-08-09T12:05:44.876Z,988.5
2018-08-09T12:06:46.275Z,988.6
2018-08-09T12:07:47.679Z,988.5
2018-08-09T12:08:49.054Z,988.6
2018-08-09T12:09:50.433Z,988.5
2018-08-09T12:10:51.830Z,988.5
2018-08-09T12:11:53.197Z,988.6
2018-08-09T12:12:54.688Z,988.5
2018-08-09T12:13:56.069Z,988.5
2018-08-09T12:14:57.464Z,988.5
2018-08-09T12:15:58.959Z,988.4
2018-08-09T12:17:00.377Z,988.5
2018-08-09T12:18:01.782Z,988.4
2018-08-09T12:19:03.285Z,988.4
2018-08-09T12:20:04.804Z,988.4
2018-08-09T12:21:06.969Z,988.4
2018-08-09T12:22:08.347Z,988.4
2018-08-09T12:23:09.731Z,988.4
2018-08-09T12:24:11.126Z,988.4
2018-08-09T12:25:12.529Z,988.4
2018-08-09T12:26:14.604Z,988.4
2018-08-09T12:27:16.232Z,988.4
2018-08-09T12:28:17.620Z,988.4
2018-08-09T12:29:19.025Z,988.4
2018-08-09T12:30:20.450Z,988.3
2018-08-09T12:31:21.794Z,988.4
2018-08-09T12:32:23.175Z,988.3
2018-08-09T12:33:24.558Z,988.3
2018-08-09T12:34:25.938Z,988.3
2018-08-09T12:35:28.254Z,988.3
2018-08-09T12:36:29.655Z,988.3
2018-08-09T12:37:31.036Z,988.3
2018-08-09T12:38:32.415Z,988.3
2018-08-09T12:39:33.797Z,988.3
2018-08-09T12:40:35.170Z,988.3
2018-08-09T12:41:36.552Z,988.2
2018-08-09T12:42:37.934Z,988.2
2018-08-09T12:43:39.315Z,988.2
2018-08-09T12:44:40.748Z,988.2
2018-08-09T12:45:42.125Z,988.2
2018-08-09T12:46:43.509Z,988.2
2018-08-09T12:47:45.740Z,988.2
2018-08-09T12:48:47.105Z,988.2
2018-08-09T12:49:48.520Z,988.2
2018-08-09T12:50:49.943Z,988.2
2018-08-09T12:51:51.292Z,988.2
2018-08-09T12:52:52.685Z,988.2
2018-08-09T12:53:54.109Z,988.2
2018-08-09T12:54:55.531Z,988.2
2018-08-09T12:55:56.971Z,988.2
2018-08-09T12:56:58.366Z,988.3
2018-08-09T12:57:59.782Z,988.2
2018-08-09T12:59:01.862Z,988.2
2018-08-09T13:00:03.237Z,988.2
2018-08-09T13:01:04.622Z,988.2
2018-08-09T13:02:06.066Z,988.2
2018-08-09T13:03:07.515Z,988.2
2018-08-09T13:04:08.888Z,988.2
2018-08-09T13:05:10.296Z,988.2
2018-08-09T13:06:11.965Z,988.2
2018-08-09T13:07:13.360Z,988.2
2018-08-09T13:08:14.759Z,988.2
2018-08-09T13:09:16.166Z,988.2
2018-08-09T13:10:17.542Z,988.2
2018-08-09T13:11:18.933Z,988.1